Time;durP1;ratioP1;P1;durP2;ratioP2;P2;SDS_P1;SDS_P2;PMS_P1;PMS_P2;Temp;Humidity;BMP_temperature;BMP_pressure;BME280_temperature;BME280_humidity;BME280_pressure;Samples;Min_cycle;Max_cycle;Signal;HPM_P1;HPM_P2
2020/12/06 00:01:02;;;;;;;;;;;2.90;99.90;;;;;;5114119;28;19946;-72
2020/12/06 00:03:28;;;;;;;;;;;2.90;99.90;;;;;;5116477;28;19963;-73
2020/12/06 00:05:55;;;;;;;;;;;2.80;99.90;;;;;;5113028;28;19931;-73
2020/12/06 00:08:21;;;;;;;;;;;2.80;99.90;;;;;;5116224;28;20077;-72
2020/12/06 00:10:47;;;;;;;;;;;2.80;99.90;;;;;;5112785;28;19919;-72
2020/12/06 00:13:15;;;;;;;;;;;2.80;99.90;;;;;;5116165;28;19959;-71
2020/12/06 00:15:41;;;;;;;;;;;2.80;99.90;;;;;;5113338;28;19919;-72
2020/12/06 00:18:07;;;;;;;;;;;2.90;99.90;;;;;;5115961;28;19924;-71
2020/12/06 00:20:34;;;;;;;;;;;2.90;99.90;;;;;;5113526;28;19919;-72
2020/12/06 00:23:00;;;;;;;;;;;2.90;99.90;;;;;;5115483;28;19963;-72
2020/12/06 00:25:27;;;;;;;;;;;2.90;99.90;;;;;;5113375;28;19924;-72
2020/12/06 00:27:53;;;;;;;;;;;3.00;99.90;;;;;;5114980;28;19926;-72
2020/12/06 00:30:20;;;;;;;;;;;2.90;99.90;;;;;;5115942;28;19951;-72
2020/12/06 00:32:47;;;;;;;;;;;2.90;99.90;;;;;;5094439;28;20314;-72
2020/12/06 00:35:13;;;;;;;;;;;2.90;99.90;;;;;;5098128;28;20230;-71
2020/12/06 00:37:40;;;;;;;;;;;2.90;99.90;;;;;;5112313;28;19919;-72
2020/12/06 00:40:06;;;;;;;;;;;2.90;99.90;;;;;;5115669;28;19978;-72
2020/12/06 00:42:33;;;;;;;;;;;2.90;99.90;;;;;;5113184;28;19942;-72
2020/12/06 00:44:59;;;;;;;;;;;2.90;99.90;;;;;;5096542;28;19924;-72
2020/12/06 00:47:27;;;;;;;;;;;3.00;99.90;;;;;;5090996;28;19924;-73
2020/12/06 00:49:53;;;;;;;;;;;2.90;99.90;;;;;;5094492;28;20323;-72
2020/12/06 00:52:20;;;;;;;;;;;2.90;99.90;;;;;;5092100;28;20383;-72
2020/12/06 00:54:46;;;;;;;;;;;3.00;99.90;;;;;;5092717;28;20328;-72
2020/12/06 00:57:13;;;;;;;;;;;3.00;99.90;;;;;;5074734;28;19920;-72
2020/12/06 00:59:39;;;;;;;;;;;3.00;99.90;;;;;;5094324;28;19947;-73
2020/12/06 01:02:07;;;;;;;;;;;3.00;99.90;;;;;;5092537;28;20010;-72
2020/12/06 01:04:34;;;;;;;;;;;3.00;99.90;;;;;;5094714;28;19927;-71
2020/12/06 01:07:00;;;;;;;;;;;3.00;99.90;;;;;;5091777;28;19926;-71
2020/12/06 01:09:27;;;;;;;;;;;3.00;99.90;;;;;;5094150;28;20322;-72
2020/12/06 01:11:54;;;;;;;;;;;3.00;99.90;;;;;;5094241;28;20016;-71
2020/12/06 01:14:20;;;;;;;;;;;3.00;99.90;;;;;;5092187;28;19927;-72
2020/12/06 01:16:49;;;;;;;;;;;3.00;99.90;;;;;;5093816;28;20273;-72
2020/12/06 01:19:15;;;;;;;;;;;3.00;99.90;;;;;;5091801;28;19920;-72
2020/12/06 01:21:46;;;;;;;;;;;3.10;99.90;;;;;;5093872;28;19927;-73
2020/12/06 01:24:13;;;;;;;;;;;3.00;99.90;;;;;;5091704;28;19920;-72
2020/12/06 01:26:39;;;;;;;;;;;3.10;99.90;;;;;;5093536;28;19959;-73
2020/12/06 01:29:06;;;;;;;;;;;3.10;99.90;;;;;;5091599;28;20387;-72
2020/12/06 01:31:32;;;;;;;;;;;3.10;99.90;;;;;;5094006;28;20291;-73
2020/12/06 01:33:58;;;;;;;;;;;3.10;99.90;;;;;;5090931;28;19967;-72
2020/12/06 01:36:25;;;;;;;;;;;3.00;99.90;;;;;;5094469;28;19989;-72
2020/12/06 01:38:53;;;;;;;;;;;3.00;99.90;;;;;;5072378;28;20018;-73
2020/12/06 01:41:19;;;;;;;;;;;3.10;99.90;;;;;;5094000;28;19971;-72
2020/12/06 01:43:54;;;;;;;;;;;3.10;99.90;;;;;;5091149;28;19930;-73
2020/12/06 01:46:20;;;;;;;;;;;3.10;99.90;;;;;;5094229;28;20257;-72
2020/12/06 01:48:46;;;;;;;;;;;3.10;99.90;;;;;;5088443;28;20426;-73
2020/12/06 01:51:15;;;;;;;;;;;3.10;99.90;;;;;;5087951;28;19974;-72
2020/12/06 01:53:41;;;;;;;;;;;3.10;99.90;;;;;;5091254;28;19973;-73
2020/12/06 01:56:09;;;;;;;;;;;3.10;99.90;;;;;;5073195;28;19959;-72
2020/12/06 01:58:35;;;;;;;;;;;3.10;99.90;;;;;;5073441;28;19924;-72
2020/12/06 02:01:01;;;;;;;;;;;3.10;99.90;;;;;;5071020;28;19921;-72
2020/12/06 02:03:28;;;;;;;;;;;3.10;99.90;;;;;;5055442;28;20324;-73
2020/12/06 02:05:56;;;;;;;;;;;3.10;99.90;;;;;;5069003;28;20396;-72
2020/12/06 02:08:22;;;;;;;;;;;3.10;99.90;;;;;;5073229;28;19928;-72
2020/12/06 02:10:48;;;;;;;;;;;3.10;99.90;;;;;;5070073;28;19920;-73
2020/12/06 02:13:16;;;;;;;;;;;3.10;99.90;;;;;;5073176;28;19921;-72
2020/12/06 02:15:42;;;;;;;;;;;3.10;99.90;;;;;;5069970;28;20007;-73
2020/12/06 02:18:08;;;;;;;;;;;3.10;99.90;;;;;;5073115;28;20022;-73
2020/12/06 02:20:35;;;;;;;;;;;3.10;99.90;;;;;;5053035;28;20032;-72
2020/12/06 02:23:02;;;;;;;;;;;3.10;99.90;;;;;;5072738;28;19921;-72
2020/12/06 02:25:28;;;;;;;;;;;3.10;99.90;;;;;;5070272;28;19934;-73
2020/12/06 02:27:54;;;;;;;;;;;3.10;99.90;;;;;;5072543;28;20023;-72
2020/12/06 02:30:21;;;;;;;;;;;3.10;99.90;;;;;;5070308;28;19920;-73
2020/12/06 02:32:48;;;;;;;;;;;3.20;99.90;;;;;;5054412;28;20347;-72
2020/12/06 02:35:14;;;;;;;;;;;3.10;99.90;;;;;;5073284;28;19931;-73
2020/12/06 02:37:41;;;;;;;;;;;3.10;99.90;;;;;;5069571;28;19927;-74
2020/12/06 02:40:07;;;;;;;;;;;3.10;99.90;;;;;;5054995;28;20319;-73
2020/12/06 02:42:34;;;;;;;;;;;3.10;99.90;;;;;;5070421;28;20007;-72
2020/12/06 02:45:00;;;;;;;;;;;3.10;99.90;;;;;;5085006;28;20020;-71
2020/12/06 02:47:26;;;;;;;;;;;3.10;99.90;;;;;;5082056;28;19924;-73
2020/12/06 02:49:52;;;;;;;;;;;3.10;99.90;;;;;;5091770;28;20372;-72
2020/12/06 02:52:19;;;;;;;;;;;3.10;99.90;;;;;;5090265;28;19920;-71
2020/12/06 02:54:46;;;;;;;;;;;3.10;99.90;;;;;;5091858;28;19948;-72
2020/12/06 02:57:12;;;;;;;;;;;3.10;99.90;;;;;;5090258;28;19993;-72
2020/12/06 02:59:38;;;;;;;;;;;3.10;99.90;;;;;;5091673;28;20300;-72
2020/12/06 03:02:05;;;;;;;;;;;3.10;99.90;;;;;;5090177;28;20281;-71
2020/12/06 03:04:31;;;;;;;;;;;3.10;99.90;;;;;;5092467;28;19920;-71
2020/12/06 03:06:57;;;;;;;;;;;3.10;99.90;;;;;;5089864;28;19931;-72
2020/12/06 03:09:24;;;;;;;;;;;3.10;99.90;;;;;;5091698;28;19946;-72
2020/12/06 03:11:51;;;;;;;;;;;3.10;99.90;;;;;;5089002;28;19920;-72
2020/12/06 03:14:17;;;;;;;;;;;3.10;99.90;;;;;;5092428;28;20027;-71
2020/12/06 03:16:43;;;;;;;;;;;3.10;99.90;;;;;;5073665;28;20315;-72
2020/12/06 03:19:10;;;;;;;;;;;3.20;99.90;;;;;;5089849;28;19967;-72
2020/12/06 03:21:36;;;;;;;;;;;3.20;99.90;;;;;;5092249;28;19959;-75
2020/12/06 03:24:02;;;;;;;;;;;3.10;99.90;;;;;;5089608;28;19920;-71
2020/12/06 03:26:29;;;;;;;;;;;3.10;99.90;;;;;;5092703;28;19946;-72
2020/12/06 03:28:56;;;;;;;;;;;3.20;99.90;;;;;;5089221;28;19924;-72
2020/12/06 03:31:22;;;;;;;;;;;3.20;99.90;;;;;;5092133;28;19988;-72
2020/12/06 03:33:48;;;;;;;;;;;3.10;99.90;;;;;;5089010;28;19926;-71
2020/12/06 03:36:15;;;;;;;;;;;3.10;99.90;;;;;;5092456;28;19950;-72
2020/12/06 03:38:41;;;;;;;;;;;3.20;99.90;;;;;;5071030;28;19920;-73
2020/12/06 03:41:07;;;;;;;;;;;3.10;99.90;;;;;;5092709;28;19924;-72
2020/12/06 03:43:33;;;;;;;;;;;3.10;99.90;;;;;;5089632;28;19920;-71
2020/12/06 03:46:00;;;;;;;;;;;3.20;99.90;;;;;;5073593;28;19959;-72
2020/12/06 03:48:27;;;;;;;;;;;3.20;99.90;;;;;;5071678;28;19970;-72
2020/12/06 03:50:53;;;;;;;;;;;3.20;99.90;;;;;;5091226;28;19920;-72
2020/12/06 03:53:20;;;;;;;;;;;3.20;99.90;;;;;;5090542;28;19942;-72
2020/12/06 03:55:46;;;;;;;;;;;3.20;99.90;;;;;;5090826;28;19990;-72
2020/12/06 03:58:12;;;;;;;;;;;3.20;99.90;;;;;;5092218;28;19920;-72
2020/12/06 04:00:38;;;;;;;;;;;3.20;99.90;;;;;;5088808;28;20279;-72
2020/12/06 04:03:06;;;;;;;;;;;3.20;99.90;;;;;;5092337;28;19926;-72
2020/12/06 04:05:32;;;;;;;;;;;3.30;99.90;;;;;;5089173;28;19931;-72
2020/12/06 04:07:59;;;;;;;;;;;3.30;99.90;;;;;;5091365;28;19927;-72
2020/12/06 04:10:25;;;;;;;;;;;3.30;99.90;;;;;;5070845;28;19952;-71
2020/12/06 04:12:52;;;;;;;;;;;3.20;99.90;;;;;;5091334;28;20372;-71
2020/12/06 04:15:18;;;;;;;;;;;3.30;99.90;;;;;;5089164;28;19946;-71
2020/12/06 04:17:45;;;;;;;;;;;3.30;99.90;;;;;;5090798;28;19977;-71
2020/12/06 04:20:12;;;;;;;;;;;3.30;99.90;;;;;;5089410;28;20023;-71
2020/12/06 04:22:38;;;;;;;;;;;3.30;99.90;;;;;;5076908;28;19924;-73
2020/12/06 04:25:04;;;;;;;;;;;3.30;99.90;;;;;;5086581;28;20015;-72
2020/12/06 04:27:30;;;;;;;;;;;3.30;99.90;;;;;;5091895;28;19920;-73
2020/12/06 04:29:57;;;;;;;;;;;3.30;99.90;;;;;;5091967;28;19924;-72
2020/12/06 04:32:23;;;;;;;;;;;3.30;99.90;;;;;;5095715;28;20331;-72
2020/12/06 04:34:49;;;;;;;;;;;3.30;99.90;;;;;;5095187;28;19920;-73
2020/12/06 04:37:16;;;;;;;;;;;3.30;99.90;;;;;;5092706;28;19920;-72
2020/12/06 04:39:43;;;;;;;;;;;3.40;99.90;;;;;;5094461;28;20020;-74
2020/12/06 04:42:09;;;;;;;;;;;3.30;99.90;;;;;;5092663;28;20431;-72
2020/12/06 04:44:36;;;;;;;;;;;3.30;99.90;;;;;;5095413;28;19966;-72
2020/12/06 04:47:03;;;;;;;;;;;3.30;99.90;;;;;;5092286;28;19926;-72
2020/12/06 04:49:42;;;;;;;;;;;3.40;99.90;;;;;;5095186;28;19931;-72
2020/12/06 04:52:11;;;;;;;;;;;3.30;99.90;;;;;;5086596;28;19966;-72
2020/12/06 04:54:40;;;;;;;;;;;3.40;99.90;;;;;;5094315;28;19931;-73
2020/12/06 04:57:07;;;;;;;;;;;3.50;99.90;;;;;;5092674;28;19920;-72
2020/12/06 04:59:35;;;;;;;;;;;3.70;99.90;;;;;;5095356;28;19926;-72
2020/12/06 05:02:04;;;;;;;;;;;3.70;99.90;;;;;;5092522;28;20349;-72
2020/12/06 05:04:32;;;;;;;;;;;3.70;99.90;;;;;;5095260;28;19973;-72
2020/12/06 05:06:59;;;;;;;;;;;3.80;99.90;;;;;;5091641;28;20014;-72
2020/12/06 05:09:28;;;;;;;;;;;3.70;99.90;;;;;;5094329;28;19973;-74
2020/12/06 05:11:55;;;;;;;;;;;3.80;99.90;;;;;;5091765;28;20257;-72
2020/12/06 05:14:21;;;;;;;;;;;3.80;99.90;;;;;;5094733;28;19926;-72
2020/12/06 05:16:48;;;;;;;;;;;3.80;99.90;;;;;;5091400;28;19924;-72
2020/12/06 05:19:14;;;;;;;;;;;3.80;99.90;;;;;;5094441;28;19921;-72
2020/12/06 05:21:41;;;;;;;;;;;3.70;99.90;;;;;;5094018;28;20328;-73
2020/12/06 05:24:08;;;;;;;;;;;3.60;99.90;;;;;;5092967;28;19923;-72
2020/12/06 05:26:34;;;;;;;;;;;3.50;99.90;;;;;;5076359;28;19920;-72
2020/12/06 05:29:02;;;;;;;;;;;3.50;99.90;;;;;;5091656;28;19927;-72
2020/12/06 05:31:29;;;;;;;;;;;3.50;99.90;;;;;;5076198;28;19969;-72
2020/12/06 05:33:55;;;;;;;;;;;3.50;99.90;;;;;;5091092;28;19920;-72
2020/12/06 05:36:22;;;;;;;;;;;3.50;99.90;;;;;;5094246;28;20273;-72
2020/12/06 05:38:48;;;;;;;;;;;3.40;99.90;;;;;;5090828;28;19963;-73
2020/12/06 05:41:15;;;;;;;;;;;3.40;99.90;;;;;;5094714;28;19927;-72
2020/12/06 05:43:41;;;;;;;;;;;3.40;99.90;;;;;;5072575;28;19973;-73
2020/12/06 05:46:09;;;;;;;;;;;3.40;99.90;;;;;;5076263;28;19930;-73
2020/12/06 05:48:36;;;;;;;;;;;3.40;99.90;;;;;;5091162;28;19975;-73
2020/12/06 05:51:03;;;;;;;;;;;3.40;99.90;;;;;;5093926;28;20006;-72
2020/12/06 05:53:30;;;;;;;;;;;3.40;99.90;;;;;;5091696;28;19955;-73
2020/12/06 05:56:00;;;;;;;;;;;3.40;99.90;;;;;;5093057;28;19973;-73
2020/12/06 05:58:26;;;;;;;;;;;3.40;99.90;;;;;;5091028;28;19974;-73
2020/12/06 06:00:53;;;;;;;;;;;3.40;99.90;;;;;;5093254;28;19920;-72
2020/12/06 06:03:24;;;;;;;;;;;3.40;99.90;;;;;;5092559;28;19920;-73
2020/12/06 06:05:52;;;;;;;;;;;3.50;99.90;;;;;;5092910;28;19928;-73
2020/12/06 06:08:21;;;;;;;;;;;3.40;99.90;;;;;;5093814;28;19920;-72
2020/12/06 06:10:52;;;;;;;;;;;3.50;99.90;;;;;;5090508;28;19920;-71
2020/12/06 06:13:22;;;;;;;;;;;3.40;99.90;;;;;;5093900;28;20356;-71
2020/12/06 06:15:49;;;;;;;;;;;3.40;99.90;;;;;;5071988;28;20019;-71
2020/12/06 06:18:15;;;;;;;;;;;3.50;99.90;;;;;;5093461;28;20023;-72
2020/12/06 06:20:42;;;;;;;;;;;3.50;99.90;;;;;;5089766;28;19927;-72
2020/12/06 06:23:09;;;;;;;;;;;3.50;99.90;;;;;;5093196;28;20377;-71
2020/12/06 06:25:36;;;;;;;;;;;3.40;99.90;;;;;;5072681;28;20302;-72
2020/12/06 06:28:03;;;;;;;;;;;3.40;99.90;;;;;;5093009;28;19920;-71
2020/12/06 06:30:30;;;;;;;;;;;3.40;99.90;;;;;;5090470;28;19920;-71
2020/12/06 06:32:56;;;;;;;;;;;3.50;99.90;;;;;;5092294;28;20221;-71
2020/12/06 06:35:22;;;;;;;;;;;3.50;99.90;;;;;;5090604;28;20418;-72
2020/12/06 06:37:51;;;;;;;;;;;3.50;99.90;;;;;;5091233;28;21416;-72
2020/12/06 06:40:26;;;;;;;;;;;3.50;99.90;;;;;;5089941;28;20362;-71
2020/12/06 06:42:54;;;;;;;;;;;3.50;99.90;;;;;;5092355;28;20003;-71
2020/12/06 06:45:20;;;;;;;;;;;3.50;99.90;;;;;;5090280;28;19938;-71
2020/12/06 06:47:47;;;;;;;;;;;3.50;99.90;;;;;;5091964;28;19928;-72
2020/12/06 06:50:15;;;;;;;;;;;3.50;99.90;;;;;;5089726;28;20268;-72
2020/12/06 06:52:42;;;;;;;;;;;3.50;99.90;;;;;;5091969;28;19965;-72
2020/12/06 06:55:10;;;;;;;;;;;3.50;99.90;;;;;;5092994;28;20027;-72
2020/12/06 06:57:39;;;;;;;;;;;3.50;99.90;;;;;;5089470;28;20023;-76
2020/12/06 07:00:06;;;;;;;;;;;3.50;99.90;;;;;;5092814;28;19920;-71
2020/12/06 07:02:33;;;;;;;;;;;3.50;99.90;;;;;;5089950;28;19920;-71
2020/12/06 07:04:59;;;;;;;;;;;3.50;99.90;;;;;;5091752;28;19951;-72
2020/12/06 07:07:39;;;;;;;;;;;3.50;99.90;;;;;;5090070;28;20253;-72
2020/12/06 07:10:06;;;;;;;;;;;3.50;99.90;;;;;;5074049;28;19985;-72
2020/12/06 07:12:37;;;;;;;;;;;3.50;99.90;;;;;;5090213;28;20340;-71
2020/12/06 07:15:05;;;;;;;;;;;3.50;99.90;;;;;;5092698;28;19926;-72
2020/12/06 07:17:32;;;;;;;;;;;3.60;99.90;;;;;;5089904;28;19920;-72
2020/12/06 07:19:59;;;;;;;;;;;3.50;99.90;;;;;;5091672;28;19920;-72
2020/12/06 07:22:26;;;;;;;;;;;3.60;99.90;;;;;;5090088;28;19926;-72
2020/12/06 07:24:53;;;;;;;;;;;3.60;99.90;;;;;;5091800;28;20299;-72
2020/12/06 07:27:19;;;;;;;;;;;3.50;99.90;;;;;;5089410;28;19923;-72
2020/12/06 07:29:46;;;;;;;;;;;3.60;99.90;;;;;;5091667;28;19924;-72
2020/12/06 07:32:13;;;;;;;;;;;3.60;99.90;;;;;;5089639;28;20030;-72
2020/12/06 07:34:39;;;;;;;;;;;3.60;99.90;;;;;;5091249;28;19934;-72
2020/12/06 07:37:05;;;;;;;;;;;3.60;99.90;;;;;;5089263;28;20369;-72
2020/12/06 07:39:32;;;;;;;;;;;3.60;99.90;;;;;;5072828;28;19920;-73
2020/12/06 07:41:58;;;;;;;;;;;3.60;99.90;;;;;;5077359;28;19932;-72
2020/12/06 07:44:24;;;;;;;;;;;3.60;99.90;;;;;;5098432;28;19963;-73
2020/12/06 07:47:00;;;;;;;;;;;3.60;99.90;;;;;;5090761;28;19920;-73
2020/12/06 07:49:26;;;;;;;;;;;3.60;99.90;;;;;;5089269;28;20298;-74
2020/12/06 07:51:52;;;;;;;;;;;3.60;99.90;;;;;;5090947;28;19956;-72
2020/12/06 07:54:19;;;;;;;;;;;3.70;99.90;;;;;;5070475;28;19981;-72
2020/12/06 07:56:47;;;;;;;;;;;3.70;99.90;;;;;;5089155;28;20010;-76
2020/12/06 07:59:17;;;;;;;;;;;3.70;99.90;;;;;;5079733;28;19921;-72
2020/12/06 08:01:45;;;;;;;;;;;3.70;99.90;;;;;;5071704;28;20334;-72
2020/12/06 08:04:13;;;;;;;;;;;3.70;99.90;;;;;;5083380;28;19920;-72
2020/12/06 08:06:41;;;;;;;;;;;3.70;99.90;;;;;;5109737;28;19920;-73
2020/12/06 08:09:08;;;;;;;;;;;3.70;99.90;;;;;;5083348;28;20035;-72
2020/12/06 08:11:36;;;;;;;;;;;3.70;99.90;;;;;;5094488;28;19920;-72
2020/12/06 08:14:03;;;;;;;;;;;3.80;99.90;;;;;;5092425;28;19926;-72
2020/12/06 08:16:29;;;;;;;;;;;3.70;99.90;;;;;;5094779;28;19960;-73
2020/12/06 08:18:59;;;;;;;;;;;3.70;99.90;;;;;;5090795;28;20231;-72
2020/12/06 08:21:38;;;;;;;;;;;3.70;99.90;;;;;;5076877;28;19920;-72
2020/12/06 08:24:16;;;;;;;;;;;3.70;99.90;;;;;;5092652;28;23248;-73
2020/12/06 08:26:43;;;;;;;;;;;3.80;99.90;;;;;;5076141;28;19927;-73
2020/12/06 08:29:09;;;;;;;;;;;3.80;99.90;;;;;;5092183;28;19973;-72
2020/12/06 08:31:36;;;;;;;;;;;3.80;99.90;;;;;;5110530;28;20288;-72
2020/12/06 08:34:12;;;;;;;;;;;3.80;99.90;;;;;;5094219;28;20388;-72
2020/12/06 08:36:40;;;;;;;;;;;3.80;99.90;;;;;;5073626;28;19921;-73
2020/12/06 08:39:17;;;;;;;;;;;3.80;99.90;;;;;;5091156;28;20347;-72
2020/12/06 08:41:43;;;;;;;;;;;3.80;99.90;;;;;;5091879;28;19946;-73
2020/12/06 08:44:10;;;;;;;;;;;3.80;99.90;;;;;;5092370;28;19965;-73
2020/12/06 08:46:36;;;;;;;;;;;3.80;99.90;;;;;;5071273;28;20392;-77
2020/12/06 08:49:14;;;;;;;;;;;3.80;99.90;;;;;;5076886;28;19920;-72
2020/12/06 08:51:46;;;;;;;;;;;3.80;99.90;;;;;;5050836;28;19932;-72
2020/12/06 08:54:13;;;;;;;;;;;3.80;99.90;;;;;;5074838;28;20338;-72
2020/12/06 08:56:40;;;;;;;;;;;3.80;99.90;;;;;;5068639;28;19920;-72
2020/12/06 08:59:07;;;;;;;;;;;3.80;99.90;;;;;;5074585;28;19920;-75
2020/12/06 09:01:33;;;;;;;;;;;3.90;99.90;;;;;;5070514;28;19920;-74
2020/12/06 09:04:00;;;;;;;;;;;3.90;99.90;;;;;;5054327;28;19960;-72
2020/12/06 09:06:26;;;;;;;;;;;3.90;99.90;;;;;;5074475;28;20380;-73
2020/12/06 09:08:53;;;;;;;;;;;3.90;99.90;;;;;;5071817;28;19925;-72
2020/12/06 09:11:21;;;;;;;;;;;4.00;99.90;;;;;;5073102;28;19932;-72
2020/12/06 09:13:47;;;;;;;;;;;3.90;99.90;;;;;;5067637;28;19929;-72
2020/12/06 09:16:14;;;;;;;;;;;3.90;99.90;;;;;;5073880;28;19924;-72
2020/12/06 09:18:40;;;;;;;;;;;3.90;99.90;;;;;;5051537;28;20304;-74
2020/12/06 09:21:07;;;;;;;;;;;4.00;99.90;;;;;;5054204;28;19929;-72
2020/12/06 09:23:34;;;;;;;;;;;4.00;99.90;;;;;;5053929;28;19928;-72
2020/12/06 09:26:01;;;;;;;;;;;4.10;99.90;;;;;;5050697;28;19982;-72
2020/12/06 09:28:28;;;;;;;;;;;4.00;99.90;;;;;;5055892;28;19936;-72
2020/12/06 09:30:54;;;;;;;;;;;4.00;99.90;;;;;;5068450;28;20002;-71
2020/12/06 09:33:20;;;;;;;;;;;4.10;99.90;;;;;;5073671;28;19929;-71
2020/12/06 09:35:47;;;;;;;;;;;4.10;99.90;;;;;;5068007;28;19928;-72
2020/12/06 09:38:13;;;;;;;;;;;4.10;99.90;;;;;;5073738;28;19950;-71
2020/12/06 09:40:40;;;;;;;;;;;4.10;99.90;;;;;;5070896;28;19929;-72
2020/12/06 09:43:07;;;;;;;;;;;4.00;99.90;;;;;;5070292;28;20300;-72
2020/12/06 09:45:33;;;;;;;;;;;4.00;99.90;;;;;;5073125;28;20015;-72
2020/12/06 09:48:00;;;;;;;;;;;4.00;99.90;;;;;;5074432;28;19924;-72
2020/12/06 09:50:26;;;;;;;;;;;4.00;99.90;;;;;;5085607;28;19971;-72
2020/12/06 09:52:52;;;;;;;;;;;4.10;99.90;;;;;;5075103;28;19927;-72
2020/12/06 09:55:19;;;;;;;;;;;4.10;99.90;;;;;;5093516;28;19934;-72
2020/12/06 09:57:45;;;;;;;;;;;4.10;99.90;;;;;;5086455;28;19932;-73
2020/12/06 10:00:12;;;;;;;;;;;4.30;99.90;;;;;;5072685;28;19925;-72
2020/12/06 10:02:39;;;;;;;;;;;4.20;99.90;;;;;;5072784;28;19924;-72
2020/12/06 10:05:05;;;;;;;;;;;4.30;99.90;;;;;;5070657;28;19924;-72
2020/12/06 10:07:31;;;;;;;;;;;4.30;99.90;;;;;;5053071;28;20451;-73
2020/12/06 10:09:58;;;;;;;;;;;4.30;99.90;;;;;;5062934;28;19928;-72
2020/12/06 10:12:24;;;;;;;;;;;4.30;99.90;;;;;;5073303;28;20043;-72
2020/12/06 10:14:50;;;;;;;;;;;4.30;99.90;;;;;;5068734;28;19937;-72
2020/12/06 10:17:18;;;;;;;;;;;4.30;99.90;;;;;;5075544;28;19943;-72
2020/12/06 10:19:44;;;;;;;;;;;4.40;99.90;;;;;;5091497;28;19928;-75
2020/12/06 10:22:10;;;;;;;;;;;4.40;99.90;;;;;;5069253;28;20011;-72
2020/12/06 10:24:37;;;;;;;;;;;4.50;99.90;;;;;;5072292;28;20457;-75
2020/12/06 10:27:03;;;;;;;;;;;4.50;99.90;;;;;;5078027;28;20286;-72
2020/12/06 10:29:32;;;;;;;;;;;4.60;99.90;;;;;;5092726;28;19928;-73
2020/12/06 10:32:00;;;;;;;;;;;4.70;99.90;;;;;;5062577;28;19928;-72
2020/12/06 10:34:28;;;;;;;;;;;4.70;99.90;;;;;;5072885;28;19924;-72
2020/12/06 10:36:54;;;;;;;;;;;4.70;99.90;;;;;;5069450;28;20428;-72
2020/12/06 10:39:21;;;;;;;;;;;4.70;99.90;;;;;;5072614;28;19931;-72
2020/12/06 10:41:47;;;;;;;;;;;4.70;99.90;;;;;;5051506;28;19972;-72
2020/12/06 10:44:14;;;;;;;;;;;4.70;99.90;;;;;;5072729;28;19955;-72
2020/12/06 10:46:40;;;;;;;;;;;4.70;99.90;;;;;;5069352;28;19994;-75
2020/12/06 10:49:06;;;;;;;;;;;4.70;99.90;;;;;;5089735;28;19954;-72
2020/12/06 10:51:34;;;;;;;;;;;4.70;99.90;;;;;;5074266;28;19924;-73
2020/12/06 10:54:00;;;;;;;;;;;4.70;99.90;;;;;;5089554;28;19966;-72
2020/12/06 10:56:27;;;;;;;;;;;4.80;99.90;;;;;;5092616;28;20029;-72
2020/12/06 10:58:54;;;;;;;;;;;4.80;99.90;;;;;;5071446;28;19924;-72
2020/12/06 11:01:25;;;;;;;;;;;4.80;99.90;;;;;;5073841;28;19924;-72
2020/12/06 11:03:51;;;;;;;;;;;4.80;99.90;;;;;;5083196;28;19924;-72
2020/12/06 11:06:19;;;;;;;;;;;4.80;99.90;;;;;;5073822;28;19924;-72
2020/12/06 11:08:46;;;;;;;;;;;4.80;99.90;;;;;;5088883;28;20306;-72
2020/12/06 11:11:13;;;;;;;;;;;4.80;99.90;;;;;;5074123;28;19928;-72
2020/12/06 11:13:39;;;;;;;;;;;4.70;99.90;;;;;;5088664;28;19924;-73
2020/12/06 11:16:05;;;;;;;;;;;4.70;99.90;;;;;;5092424;28;19928;-72
2020/12/06 11:18:32;;;;;;;;;;;4.70;99.90;;;;;;5090099;28;20405;-72
2020/12/06 11:20:58;;;;;;;;;;;4.70;99.90;;;;;;5073524;28;19932;-73
2020/12/06 11:23:24;;;;;;;;;;;4.70;99.90;;;;;;5089766;28;19924;-74
2020/12/06 11:25:52;;;;;;;;;;;4.60;99.90;;;;;;5091494;28;20372;-73
2020/12/06 11:28:18;;;;;;;;;;;4.50;99.90;;;;;;5089717;28;20044;-73
2020/12/06 11:30:45;;;;;;;;;;;4.60;99.90;;;;;;5091581;28;19932;-73
2020/12/06 11:33:11;;;;;;;;;;;4.60;99.90;;;;;;5073911;28;19924;-73
2020/12/06 11:35:38;;;;;;;;;;;4.50;99.90;;;;;;5088800;28;19969;-73
2020/12/06 11:38:05;;;;;;;;;;;4.60;99.90;;;;;;5078814;28;20346;-72
2020/12/06 11:40:32;;;;;;;;;;;4.60;99.90;;;;;;5096318;28;20019;-73
2020/12/06 11:42:59;;;;;;;;;;;4.60;99.90;;;;;;5080155;28;19936;-73
2020/12/06 11:45:25;;;;;;;;;;;4.60;99.90;;;;;;5096321;28;20010;-74
2020/12/06 11:47:52;;;;;;;;;;;4.60;99.90;;;;;;5097902;28;19993;-73
2020/12/06 11:50:19;;;;;;;;;;;4.60;99.90;;;;;;5077970;28;19935;-73
2020/12/06 11:52:45;;;;;;;;;;;4.60;99.90;;;;;;5098417;28;19970;-73
2020/12/06 11:55:11;;;;;;;;;;;4.60;99.90;;;;;;5096031;28;19928;-73
2020/12/06 11:57:38;;;;;;;;;;;4.60;99.90;;;;;;5097718;28;19927;-73
2020/12/06 12:00:06;;;;;;;;;;;4.60;99.90;;;;;;5096478;28;19955;-73
2020/12/06 12:02:38;;;;;;;;;;;4.60;99.90;;;;;;5097941;28;20015;-73
2020/12/06 12:05:04;;;;;;;;;;;4.60;99.90;;;;;;5096051;28;19924;-73
2020/12/06 12:07:31;;;;;;;;;;;4.50;99.90;;;;;;5098800;28;19986;-73
2020/12/06 12:09:58;;;;;;;;;;;4.50;99.90;;;;;;5094899;28;19971;-74
2020/12/06 12:12:24;;;;;;;;;;;4.40;99.90;;;;;;5080728;28;19947;-73
2020/12/06 12:14:51;;;;;;;;;;;4.30;99.90;;;;;;5098019;28;19993;-73
2020/12/06 12:17:18;;;;;;;;;;;4.30;99.90;;;;;;5096292;28;19977;-72
2020/12/06 12:19:45;;;;;;;;;;;4.20;99.90;;;;;;5097942;28;19932;-73
2020/12/06 12:22:11;;;;;;;;;;;4.20;99.90;;;;;;5077910;28;19959;-72
2020/12/06 12:24:37;;;;;;;;;;;4.30;99.90;;;;;;5098087;28;19924;-73
2020/12/06 12:27:04;;;;;;;;;;;4.30;99.90;;;;;;5077596;28;20392;-72
2020/12/06 12:29:31;;;;;;;;;;;4.30;99.90;;;;;;5098395;28;19928;-72
2020/12/06 12:31:57;;;;;;;;;;;4.40;99.90;;;;;;5095506;28;20095;-73
2020/12/06 12:34:24;;;;;;;;;;;4.30;99.90;;;;;;5098783;28;19924;-72
2020/12/06 12:36:51;;;;;;;;;;;4.40;99.90;;;;;;5095421;28;19924;-72
2020/12/06 12:39:17;;;;;;;;;;;4.60;99.90;;;;;;5098562;28;19924;-72
2020/12/06 12:41:44;;;;;;;;;;;4.70;99.90;;;;;;5095160;28;19924;-72
2020/12/06 12:44:10;;;;;;;;;;;4.60;99.90;;;;;;5098504;28;19924;-73
2020/12/06 12:46:36;;;;;;;;;;;4.60;99.90;;;;;;5077431;28;19936;-78
2020/12/06 12:49:04;;;;;;;;;;;4.70;99.90;;;;;;5095656;28;19924;-73
2020/12/06 12:51:31;;;;;;;;;;;4.70;99.90;;;;;;5092532;28;19924;-73
2020/12/06 12:53:57;;;;;;;;;;;4.70;99.90;;;;;;5094182;28;19931;-73
2020/12/06 12:56:24;;;;;;;;;;;4.60;99.90;;;;;;5095112;28;19924;-73
2020/12/06 12:58:51;;;;;;;;;;;4.60;99.90;;;;;;5092091;28;19924;-73
2020/12/06 13:01:20;;;;;;;;;;;4.60;99.90;;;;;;5076781;28;19931;-73
2020/12/06 13:03:46;;;;;;;;;;;4.60;99.90;;;;;;5073345;28;19928;-73
2020/12/06 13:06:13;;;;;;;;;;;4.70;99.90;;;;;;5076961;28;19924;-73
2020/12/06 13:08:40;;;;;;;;;;;4.70;99.90;;;;;;5090996;28;19946;-73
2020/12/06 13:11:07;;;;;;;;;;;4.70;99.90;;;;;;5095034;28;19924;-73
2020/12/06 13:13:33;;;;;;;;;;;4.60;99.90;;;;;;5092280;28;19924;-73
2020/12/06 13:16:00;;;;;;;;;;;4.60;99.90;;;;;;5075675;28;19924;-73
2020/12/06 13:18:26;;;;;;;;;;;4.60;99.90;;;;;;5073607;28;19946;-73
2020/12/06 13:20:54;;;;;;;;;;;4.60;99.90;;;;;;5094000;28;19924;-73
2020/12/06 13:23:23;;;;;;;;;;;4.60;99.90;;;;;;5091587;28;20381;-73
2020/12/06 13:25:51;;;;;;;;;;;4.60;99.90;;;;;;5093935;28;19924;-73
2020/12/06 13:28:17;;;;;;;;;;;4.60;99.90;;;;;;5090836;28;19924;-72
2020/12/06 13:30:44;;;;;;;;;;;4.60;99.90;;;;;;5093641;28;19928;-73
2020/12/06 13:33:10;;;;;;;;;;;4.60;99.90;;;;;;5091266;28;19924;-74
2020/12/06 13:35:37;;;;;;;;;;;4.50;99.90;;;;;;5093727;28;19947;-78
2020/12/06 13:38:03;;;;;;;;;;;4.60;99.90;;;;;;5075933;28;19978;-73
2020/12/06 13:40:30;;;;;;;;;;;4.70;99.90;;;;;;5073446;28;20019;-73
2020/12/06 13:42:57;;;;;;;;;;;4.80;99.90;;;;;;5093627;28;20305;-73
2020/12/06 13:45:23;;;;;;;;;;;4.80;99.90;;;;;;5091542;28;20268;-73
2020/12/06 13:47:50;;;;;;;;;;;4.70;99.90;;;;;;5093021;28;19947;-73
2020/12/06 13:50:16;;;;;;;;;;;4.70;99.90;;;;;;5091543;28;19924;-73
2020/12/06 13:52:43;;;;;;;;;;;4.50;99.90;;;;;;5093458;28;19924;-73
2020/12/06 13:55:09;;;;;;;;;;;4.60;99.90;;;;;;5091797;28;19928;-73
2020/12/06 13:57:35;;;;;;;;;;;4.70;99.90;;;;;;5075710;28;19931;-74
2020/12/06 14:00:03;;;;;;;;;;;4.80;99.90;;;;;;5090855;28;19925;-73
2020/12/06 14:02:38;;;;;;;;;;;4.60;99.90;;;;;;5093232;28;19928;-74
2020/12/06 14:05:04;;;;;;;;;;;4.50;99.90;;;;;;5091429;28;19931;-73
2020/12/06 14:07:32;;;;;;;;;;;4.50;99.90;;;;;;5075533;28;20484;-74
2020/12/06 14:09:59;;;;;;;;;;;4.60;99.90;;;;;;5072003;28;19932;-74
2020/12/06 14:12:26;;;;;;;;;;;4.60;99.90;;;;;;5093489;28;19970;-74
2020/12/06 14:14:52;;;;;;;;;;;4.50;99.90;;;;;;5090287;28;19963;-72
2020/12/06 14:17:19;;;;;;;;;;;4.60;99.90;;;;;;5093728;28;19928;-72
2020/12/06 14:19:46;;;;;;;;;;;4.50;99.90;;;;;;5091759;28;19951;-75
2020/12/06 14:22:12;;;;;;;;;;;4.50;99.90;;;;;;5092288;28;20292;-73
2020/12/06 14:24:38;;;;;;;;;;;4.50;99.90;;;;;;5074658;28;19942;-74
2020/12/06 14:27:05;;;;;;;;;;;4.50;99.90;;;;;;5090832;28;19978;-73
2020/12/06 14:29:31;;;;;;;;;;;4.50;99.90;;;;;;5093365;28;20253;-72